createdAt,value
2019-02-18T00:00:41.135Z,29.17
2019-02-18T00:03:09.947Z,30.67
2019-02-18T00:05:38.407Z,32.17
2019-02-18T00:08:07.021Z,32.07
2019-02-18T00:10:35.474Z,29.80
2019-02-18T00:13:04.025Z,30.33
2019-02-18T00:15:32.584Z,28.83
2019-02-18T00:18:01.154Z,29.17
2019-02-18T00:20:29.676Z,30.87
2019-02-18T00:22:58.175Z,29.33
2019-02-18T00:25:26.704Z,29.67
2019-02-18T00:27:55.169Z,30.57
2019-02-18T00:30:23.752Z,31.93
2019-02-18T00:32:52.304Z,31.07
2019-02-18T00:35:20.758Z,30.77
2019-02-18T00:37:49.394Z,31.53
2019-02-18T00:40:17.936Z,29.40
2019-02-18T00:42:46.483Z,30.43
2019-02-18T00:45:15.020Z,28.53
2019-02-18T00:47:43.481Z,31.47
2019-02-18T00:50:12.675Z,29.83
2019-02-18T00:52:41.144Z,30.27
2019-02-18T00:55:09.872Z,30.47
2019-02-18T00:57:38.327Z,29.60
2019-02-18T01:00:12.693Z,29.00
2019-02-18T01:02:41.222Z,30.93
2019-02-18T01:05:11.326Z,29.87
2019-02-18T01:07:39.922Z,29.20
2019-02-18T01:10:11.418Z,31.13
2019-02-18T01:12:40.177Z,29.27
2019-02-18T01:15:11.543Z,29.83
2019-02-18T01:17:40.087Z,27.97
2019-02-18T01:20:11.386Z,28.20
2019-02-18T01:22:39.917Z,29.23
2019-02-18T01:25:10.949Z,29.50
2019-02-18T01:27:39.412Z,31.73
2019-02-18T01:30:13.791Z,27.93
2019-02-18T01:32:42.290Z,28.83
2019-02-18T01:35:11.497Z,30.23
2019-02-18T01:37:45.784Z,27.60
2019-02-18T01:40:12.862Z,29.07
2019-02-18T01:42:41.390Z,26.43
2019-02-18T01:45:14.360Z,26.97
2019-02-18T01:47:42.810Z,28.73
2019-02-18T01:50:30.619Z,29.87
2019-02-18T01:52:59.073Z,28.53
2019-02-18T01:55:27.536Z,29.37
2019-02-18T01:57:56.020Z,28.53
2019-02-18T02:00:24.473Z,27.40
2019-02-18T02:02:52.926Z,29.27
2019-02-18T02:05:21.413Z,29.27
2019-02-18T02:07:56.244Z,27.47
2019-02-18T02:10:20.079Z,27.93
2019-02-18T02:12:48.544Z,27.60
2019-02-18T02:15:26.166Z,26.73
2019-02-18T02:17:54.707Z,27.93
2019-02-18T02:20:23.235Z,29.10
2019-02-18T02:22:52.131Z,28.10
2019-02-18T02:25:20.662Z,28.57
2019-02-18T02:27:49.151Z,29.30
2019-02-18T02:30:17.683Z,28.30
2019-02-18T02:32:46.138Z,28.93
2019-02-18T02:35:14.639Z,29.03
2019-02-18T02:37:43.106Z,28.53
2019-02-18T02:40:11.705Z,28.20
2019-02-18T02:42:40.284Z,27.70
2019-02-18T02:45:09.280Z,28.63
2019-02-18T02:47:37.739Z,29.83
2019-02-18T02:50:07.481Z,29.00
2019-02-18T02:52:36.020Z,27.27
2019-02-18T02:55:06.006Z,27.80
2019-02-18T02:57:34.453Z,28.10
2019-02-18T03:00:03.354Z,30.43
2019-02-18T03:02:31.818Z,30.57
2019-02-18T03:05:00.486Z,29.63
2019-02-18T03:07:29.137Z,29.03
2019-02-18T03:09:57.591Z,30.77
2019-02-18T03:12:26.055Z,29.13
2019-02-18T03:14:54.628Z,30.57
2019-02-18T03:17:23.093Z,30.87
2019-02-18T03:19:51.627Z,30.00
2019-02-18T03:22:20.094Z,29.63
2019-02-18T03:25:15.443Z,32.17
2019-02-18T03:27:43.998Z,31.63
2019-02-18T03:30:40.987Z,33.80
2019-02-18T03:33:15.556Z,33.43
2019-02-18T03:35:44.083Z,35.23
2019-02-18T03:38:12.544Z,34.83
2019-02-18T03:40:41.010Z,33.93
2019-02-18T03:43:09.480Z,33.57
2019-02-18T03:45:38.026Z,32.93
2019-02-18T03:48:06.512Z,34.37
2019-02-18T03:50:34.967Z,33.47
2019-02-18T03:53:03.434Z,33.83
2019-02-18T03:55:32.020Z,33.23
2019-02-18T03:58:00.505Z,32.43
2019-02-18T04:00:28.967Z,31.60
2019-02-18T04:02:57.417Z,33.20
2019-02-18T04:05:25.872Z,32.70
2019-02-18T04:07:54.374Z,31.93
2019-02-18T04:10:22.840Z,32.87
2019-02-18T04:12:51.297Z,31.13
2019-02-18T04:15:19.854Z,32.27
2019-02-18T04:17:48.307Z,30.67
2019-02-18T04:20:16.776Z,30.53
2019-02-18T04:22:45.802Z,29.97
2019-02-18T04:25:14.369Z,30.67
2019-02-18T04:27:42.904Z,30.40
2019-02-18T04:30:13.729Z,31.03
2019-02-18T04:32:42.092Z,28.97
2019-02-18T04:35:10.551Z,29.13
2019-02-18T04:37:39.132Z,31.37
2019-02-18T04:40:08.994Z,31.80
2019-02-18T04:42:37.463Z,31.70
2019-02-18T04:45:08.920Z,33.07
2019-02-18T04:47:37.366Z,30.43
2019-02-18T04:50:07.673Z,30.07
2019-02-18T04:52:36.157Z,27.50
2019-02-18T04:55:10.082Z,29.93
2019-02-18T04:57:38.581Z,29.43
2019-02-18T05:00:09.380Z,28.87
2019-02-18T05:02:37.909Z,28.57
2019-02-18T05:05:09.249Z,26.37
2019-02-18T05:07:37.778Z,28.47
2019-02-18T05:10:13.172Z,30.57
2019-02-18T05:12:41.724Z,28.23
2019-02-18T05:15:10.423Z,31.60
2019-02-18T05:17:38.964Z,29.70
2019-02-18T05:20:08.668Z,32.17
2019-02-18T05:22:37.117Z,32.60
2019-02-18T05:25:07.315Z,31.07
2019-02-18T05:27:35.789Z,30.03
2019-02-18T05:30:06.456Z,29.67
2019-02-18T05:32:34.951Z,29.80
2019-02-18T05:35:03.549Z,30.80
2019-02-18T05:37:32.310Z,29.57
2019-02-18T05:40:00.898Z,31.03
2019-02-18T05:42:29.413Z,31.00
2019-02-18T05:44:57.948Z,31.83
2019-02-18T05:47:26.479Z,32.47
2019-02-18T05:49:55.029Z,33.00
2019-02-18T05:52:23.665Z,31.23
2019-02-18T05:54:52.177Z,30.73
2019-02-18T05:57:22.757Z,29.40
2019-02-18T05:59:50.810Z,30.80
2019-02-18T06:02:21.368Z,30.80
2019-02-18T06:04:49.898Z,31.20
2019-02-18T06:07:18.431Z,32.70
2019-02-18T06:09:46.971Z,33.77
2019-02-18T06:12:15.501Z,33.63
2019-02-18T06:14:43.972Z,34.77
2019-02-18T06:17:12.427Z,31.57
2019-02-18T06:19:40.949Z,31.37
2019-02-18T06:22:09.433Z,30.23
2019-02-18T06:24:37.903Z,30.27
2019-02-18T06:27:06.433Z,33.10
2019-02-18T06:29:35.099Z,34.03
2019-02-18T06:32:03.599Z,31.57
2019-02-18T06:34:32.094Z,33.47
2019-02-18T06:37:00.548Z,33.10
2019-02-18T06:39:40.259Z,30.43
2019-02-18T06:41:59.233Z,30.57
2019-02-18T06:44:29.333Z,30.23
2019-02-18T06:46:59.444Z,29.93
2019-02-18T06:49:27.911Z,28.83
2019-02-18T06:51:56.375Z,28.70
2019-02-18T06:54:24.939Z,31.20
2019-02-18T06:57:03.638Z,28.93
2019-02-18T06:59:36.545Z,27.87
2019-02-18T07:02:12.350Z,26.27
2019-02-18T07:04:48.247Z,28.27
2019-02-18T07:07:18.380Z,28.13
2019-02-18T07:09:51.767Z,27.50
2019-02-18T07:12:22.059Z,26.83
2019-02-18T07:14:50.516Z,26.60
2019-02-18T07:17:19.051Z,27.70
2019-02-18T07:19:47.604Z,29.87
2019-02-18T07:22:16.053Z,29.17
2019-02-18T07:24:44.779Z,28.47
2019-02-18T07:27:13.237Z,28.30
2019-02-18T07:29:41.723Z,29.17
2019-02-18T07:32:10.665Z,28.97
2019-02-18T07:34:39.269Z,28.20
2019-02-18T07:37:07.846Z,26.83
2019-02-18T07:39:36.389Z,26.37
2019-02-18T07:42:04.840Z,28.03
2019-02-18T07:44:33.390Z,26.37
2019-02-18T07:47:01.841Z,27.33
2019-02-18T07:49:30.298Z,28.67
2019-02-18T07:51:58.751Z,27.07
2019-02-18T07:54:27.343Z,26.03
2019-02-18T07:56:55.800Z,25.57
2019-02-18T07:59:24.267Z,25.63
2019-02-18T08:01:52.761Z,24.63
2019-02-18T08:04:21.229Z,25.67
2019-02-18T08:06:49.749Z,29.40
2019-02-18T08:09:18.223Z,27.60
2019-02-18T08:11:46.669Z,28.63
2019-02-18T08:14:15.168Z,28.93
2019-02-18T08:16:43.621Z,26.00
2019-02-18T08:19:12.075Z,27.57
2019-02-18T08:21:40.530Z,25.60
2019-02-18T08:24:09.014Z,24.10
2019-02-18T08:26:37.466Z,26.63
2019-02-18T08:29:05.914Z,27.03
2019-02-18T08:31:34.367Z,26.23
2019-02-18T08:34:02.843Z,25.93
2019-02-18T08:36:31.333Z,25.43
2019-02-18T08:38:59.847Z,25.93
2019-02-18T08:41:28.306Z,26.40
2019-02-18T08:43:56.835Z,22.83
2019-02-18T08:46:25.375Z,24.00
2019-02-18T08:48:53.850Z,24.83
2019-02-18T08:51:22.379Z,20.90
2019-02-18T08:53:50.967Z,22.13
2019-02-18T08:56:19.827Z,20.97
2019-02-18T08:58:48.278Z,23.60
2019-02-18T09:01:16.777Z,25.03
2019-02-18T09:03:45.306Z,19.57
2019-02-18T09:06:13.767Z,19.53
2019-02-18T09:08:42.311Z,18.13
2019-02-18T09:11:10.764Z,15.53
2019-02-18T09:13:39.235Z,17.90
2019-02-18T09:16:15.065Z,17.20
2019-02-18T09:18:43.535Z,14.63
2019-02-18T09:21:11.999Z,17.23
2019-02-18T09:23:48.188Z,16.73
2019-02-18T09:26:17.490Z,17.43
2019-02-18T09:28:45.955Z,15.17
2019-02-18T09:31:14.412Z,15.37
2019-02-18T09:33:42.878Z,15.87
2019-02-18T09:36:11.437Z,15.93
2019-02-18T09:38:39.900Z,16.47
2019-02-18T09:41:08.426Z,15.43
2019-02-18T09:43:36.895Z,17.57
2019-02-18T09:46:05.581Z,17.23
2019-02-18T09:48:34.590Z,11.87
2019-02-18T09:51:03.114Z,13.00
2019-02-18T09:53:31.670Z,11.47
2019-02-18T09:56:00.193Z,11.40
2019-02-18T09:58:28.661Z,11.93
2019-02-18T10:00:57.118Z,13.20
2019-02-18T10:03:32.003Z,14.60
2019-02-18T10:05:55.802Z,13.27
2019-02-18T10:08:24.274Z,13.90
2019-02-18T10:10:55.892Z,14.47
2019-02-18T10:13:42.261Z,15.20
2019-02-18T10:16:10.805Z,13.13
2019-02-18T10:18:39.370Z,13.77
2019-02-18T10:21:07.918Z,15.50
2019-02-18T10:23:36.397Z,16.33
2019-02-18T10:26:04.930Z,16.30
2019-02-18T10:28:33.416Z,15.63
2019-02-18T10:31:01.937Z,15.27
2019-02-18T10:33:30.403Z,14.37
2019-02-18T10:35:58.950Z,15.20
2019-02-18T10:38:27.455Z,14.13
2019-02-18T10:41:06.126Z,13.33
2019-02-18T10:43:32.398Z,15.00
2019-02-18T10:45:56.369Z,12.63
2019-02-18T10:48:25.415Z,14.33
2019-02-18T10:50:53.968Z,14.47
2019-02-18T10:53:22.485Z,13.63
2019-02-18T10:55:51.130Z,15.23
2019-02-18T10:58:19.671Z,12.07
2019-02-18T11:00:48.383Z,14.10
2019-02-18T11:03:16.844Z,12.40
2019-02-18T11:05:45.375Z,13.23
2019-02-18T11:08:13.853Z,14.30
2019-02-18T11:10:42.447Z,19.40
2019-02-18T11:13:10.903Z,13.63
2019-02-18T11:15:39.517Z,12.87
2019-02-18T11:18:08.070Z,12.70
2019-02-18T11:20:36.559Z,11.97
2019-02-18T11:23:05.020Z,11.23
2019-02-18T11:25:33.711Z,12.47
2019-02-18T11:28:02.883Z,12.00
2019-02-18T11:30:31.435Z,10.13
2019-02-18T11:33:00.351Z,11.00
2019-02-18T11:35:48.235Z,10.77
2019-02-18T11:38:17.275Z,10.63
2019-02-18T11:40:45.766Z,10.07
2019-02-18T11:43:14.304Z,10.90
2019-02-18T11:45:42.855Z,10.63
2019-02-18T11:48:11.386Z,10.53
2019-02-18T11:50:39.860Z,11.07
2019-02-18T11:53:08.801Z,9.53
2019-02-18T11:55:38.942Z,12.10
2019-02-18T11:58:07.470Z,12.00
2019-02-18T12:00:36.015Z,10.77
2019-02-18T12:03:11.566Z,11.90
2019-02-18T12:05:34.742Z,12.23
2019-02-18T12:08:03.929Z,10.17
2019-02-18T12:10:32.495Z,10.73
2019-02-18T12:13:01.022Z,10.27
2019-02-18T12:15:29.567Z,10.50
2019-02-18T12:17:58.124Z,9.87
2019-02-18T12:20:26.583Z,11.37
2019-02-18T12:22:55.049Z,9.97
2019-02-18T12:25:24.105Z,11.00
2019-02-18T12:27:52.651Z,10.80
2019-02-18T12:30:21.190Z,11.57
2019-02-18T12:32:49.734Z,12.27
2019-02-18T12:35:18.268Z,12.30
2019-02-18T12:37:54.874Z,14.07
2019-02-18T12:40:17.031Z,13.10
2019-02-18T12:42:45.571Z,12.53
2019-02-18T12:45:14.279Z,13.00
2019-02-18T12:47:43.088Z,10.97
2019-02-18T12:50:12.479Z,10.57
2019-02-18T12:52:41.452Z,11.30
2019-02-18T12:55:11.584Z,11.40
2019-02-18T12:57:40.675Z,12.43
2019-02-18T13:00:12.542Z,11.50
2019-02-18T13:02:44.623Z,11.30
2019-02-18T13:05:13.885Z,11.87
2019-02-18T13:07:42.494Z,12.67
2019-02-18T13:10:11.842Z,12.20
2019-02-18T13:12:40.699Z,12.03
2019-02-18T13:15:14.660Z,13.87
2019-02-18T13:17:43.392Z,12.50
2019-02-18T13:20:12.178Z,13.50
2019-02-18T13:22:40.775Z,13.07
2019-02-18T13:25:10.354Z,13.27
2019-02-18T13:27:39.005Z,14.67
2019-02-18T13:30:13.675Z,13.67
2019-02-18T13:32:42.258Z,14.93
2019-02-18T13:35:10.939Z,13.63
2019-02-18T13:37:39.466Z,15.93
2019-02-18T13:40:08.675Z,13.93
2019-02-18T13:42:37.205Z,14.07
2019-02-18T13:45:08.209Z,14.80
2019-02-18T13:47:36.740Z,15.40
2019-02-18T13:50:11.024Z,14.33
2019-02-18T13:52:39.660Z,13.83
2019-02-18T13:55:10.644Z,16.33
2019-02-18T13:57:39.650Z,17.37
2019-02-18T14:00:15.544Z,16.53
2019-02-18T14:02:44.096Z,19.13
2019-02-18T14:05:13.189Z,19.50
2019-02-18T14:07:41.713Z,18.17
2019-02-18T14:10:10.891Z,19.90
2019-02-18T14:12:39.718Z,20.70
2019-02-18T14:15:11.257Z,21.30
2019-02-18T14:17:39.902Z,20.30
2019-02-18T14:20:17.267Z,23.30
2019-02-18T14:22:45.843Z,21.33
2019-02-18T14:25:15.419Z,19.80
2019-02-18T14:27:44.032Z,20.73
2019-02-18T14:30:17.769Z,20.27
2019-02-18T14:32:46.845Z,21.30
2019-02-18T14:35:17.653Z,21.47
2019-02-18T14:37:46.527Z,21.60
2019-02-18T14:40:17.539Z,23.20
2019-02-18T14:42:46.545Z,22.33
2019-02-18T14:45:15.814Z,21.77
2019-02-18T14:47:44.354Z,27.47
2019-02-18T14:50:14.823Z,25.53
2019-02-18T14:52:43.435Z,24.63
2019-02-18T14:55:11.968Z,24.23
2019-02-18T14:57:40.518Z,24.33
2019-02-18T15:00:16.127Z,27.00
2019-02-18T15:02:44.593Z,27.03
2019-02-18T15:05:13.120Z,26.30
2019-02-18T15:07:42.165Z,27.00
2019-02-18T15:10:11.135Z,27.97
2019-02-18T15:12:39.735Z,28.00
2019-02-18T15:15:08.343Z,27.67
2019-02-18T15:17:36.897Z,29.87
2019-02-18T15:20:07.817Z,29.90
2019-02-18T15:22:36.819Z,29.07
2019-02-18T15:25:08.204Z,31.97
2019-02-18T15:27:36.825Z,33.23
2019-02-18T15:30:15.093Z,32.97
2019-02-18T15:32:43.656Z,39.80
2019-02-18T15:35:14.286Z,38.60
2019-02-18T15:37:42.971Z,33.40
2019-02-18T15:40:13.245Z,35.60
2019-02-18T15:42:42.728Z,38.40
2019-02-18T15:45:11.957Z,44.33
2019-02-18T15:47:41.355Z,39.07
2019-02-18T15:50:11.920Z,38.07
2019-02-18T15:52:40.534Z,39.93
2019-02-18T15:55:10.525Z,51.90
2019-02-18T15:57:39.093Z,66.97
2019-02-18T16:00:22.661Z,65.97
2019-02-18T16:02:51.881Z,67.27
2019-02-18T16:05:20.427Z,89.27
2019-02-18T16:07:49.043Z,80.13
2019-02-18T16:10:17.585Z,89.10
2019-02-18T16:12:50.970Z,100.93
2019-02-18T16:15:16.335Z,144.77
2019-02-18T16:17:45.351Z,152.50
2019-02-18T16:20:14.695Z,104.10
2019-02-18T16:22:43.269Z,90.13
2019-02-18T16:25:23.720Z,65.57
2019-02-18T16:27:52.248Z,69.63
2019-02-18T16:30:21.682Z,60.37
2019-02-18T16:32:50.211Z,64.27
2019-02-18T16:35:19.696Z,69.23
2019-02-18T16:37:48.274Z,69.70
2019-02-18T16:40:18.244Z,68.10
2019-02-18T16:42:47.046Z,68.10
2019-02-18T16:45:16.118Z,66.07
2019-02-18T16:47:44.941Z,63.27
2019-02-18T16:50:13.918Z,63.60
2019-02-18T16:52:42.461Z,57.37
2019-02-18T16:55:14.073Z,57.57
2019-02-18T16:57:42.647Z,56.20
2019-02-18T17:00:18.947Z,55.50
2019-02-18T17:02:47.487Z,57.10
2019-02-18T17:05:16.191Z,59.43
2019-02-18T17:07:44.750Z,58.33
2019-02-18T17:10:13.874Z,60.93
2019-02-18T17:12:42.603Z,58.53
2019-02-18T17:15:13.265Z,60.30
2019-02-18T17:17:41.953Z,60.47
2019-02-18T17:20:10.911Z,59.20
2019-02-18T17:22:39.521Z,55.20
2019-02-18T17:25:11.140Z,54.90
2019-02-18T17:27:39.686Z,52.40
2019-02-18T17:30:15.726Z,54.50
2019-02-18T17:32:44.367Z,54.77
2019-02-18T17:35:14.311Z,56.60
2019-02-18T17:37:42.911Z,54.73
2019-02-18T17:40:13.199Z,55.30
2019-02-18T17:42:42.214Z,53.50
2019-02-18T17:45:17.950Z,54.63
2019-02-18T17:47:46.599Z,66.53
2019-02-18T17:50:16.565Z,69.73
2019-02-18T17:52:45.895Z,68.00
2019-02-18T17:55:19.177Z,70.13
2019-02-18T17:57:47.764Z,70.77
2019-02-18T18:00:23.270Z,65.57
2019-02-18T18:02:51.899Z,68.87
2019-02-18T18:05:20.515Z,63.27
2019-02-18T18:07:49.456Z,62.57
2019-02-18T18:10:18.363Z,54.70
2019-02-18T18:12:46.828Z,50.30
2019-02-18T18:15:17.870Z,51.57
2019-02-18T18:17:46.586Z,46.20
2019-02-18T18:20:15.752Z,46.57
2019-02-18T18:22:44.307Z,47.67
2019-02-18T18:25:14.470Z,48.47
2019-02-18T18:27:43.001Z,45.93
2019-02-18T18:30:14.275Z,49.57
2019-02-18T18:32:42.988Z,53.70
2019-02-18T18:35:13.717Z,52.63
2019-02-18T18:37:42.236Z,53.50
2019-02-18T18:40:13.886Z,50.47
2019-02-18T18:42:42.681Z,49.70
2019-02-18T18:45:15.525Z,50.30
2019-02-18T18:47:43.942Z,49.37
2019-02-18T18:50:17.875Z,51.77
2019-02-18T18:52:46.915Z,50.50
2019-02-18T18:55:15.610Z,48.80
2019-02-18T18:57:44.238Z,50.93
2019-02-18T19:00:26.744Z,53.03
2019-02-18T19:02:55.286Z,53.20
2019-02-18T19:05:23.833Z,52.37
2019-02-18T19:07:52.368Z,52.43
2019-02-18T19:10:21.188Z,51.70
2019-02-18T19:12:49.740Z,51.87
2019-02-18T19:15:18.935Z,51.10
2019-02-18T19:17:47.473Z,51.57
2019-02-18T19:20:16.312Z,54.50
2019-02-18T19:22:44.849Z,50.87
2019-02-18T19:25:13.833Z,56.30
2019-02-18T19:27:42.382Z,55.40
2019-02-18T19:30:19.475Z,52.27
2019-02-18T19:32:48.222Z,50.77
2019-02-18T19:35:16.767Z,51.47
2019-02-18T19:37:45.301Z,53.93
2019-02-18T19:40:14.758Z,56.53
2019-02-18T19:42:43.310Z,56.20
2019-02-18T19:45:15.171Z,55.57
2019-02-18T19:47:44.108Z,56.80
2019-02-18T19:50:12.702Z,57.13
2019-02-18T19:52:41.170Z,53.20
2019-02-18T19:55:11.277Z,53.67
2019-02-18T19:57:39.822Z,56.30
2019-02-18T20:00:11.468Z,59.83
2019-02-18T20:02:40.033Z,57.03
2019-02-18T20:05:09.740Z,58.30
2019-02-18T20:07:38.288Z,58.57
2019-02-18T20:10:09.278Z,59.33
2019-02-18T20:12:37.809Z,57.57
2019-02-18T20:15:09.488Z,57.43
2019-02-18T20:17:38.071Z,59.43
2019-02-18T20:20:09.556Z,59.33
2019-02-18T20:22:38.157Z,57.87
2019-02-18T20:25:08.458Z,56.30
2019-02-18T20:27:37.370Z,57.40
2019-02-18T20:30:12.313Z,56.90
2019-02-18T20:32:40.845Z,59.13
2019-02-18T20:35:12.781Z,57.30
2019-02-18T20:37:41.324Z,58.70
2019-02-18T20:40:11.282Z,56.33
2019-02-18T20:42:40.319Z,57.17
2019-02-18T20:45:15.254Z,58.73
2019-02-18T20:47:43.809Z,55.43
2019-02-18T20:50:14.085Z,56.50
2019-02-18T20:52:42.706Z,57.83
2019-02-18T20:55:13.305Z,59.67
2019-02-18T20:57:41.905Z,61.97
2019-02-18T21:00:14.144Z,62.67
2019-02-18T21:02:42.612Z,63.23
2019-02-18T21:05:11.151Z,60.67
2019-02-18T21:07:39.707Z,59.90
2019-02-18T21:10:19.655Z,57.67
2019-02-18T21:12:48.192Z,60.00
2019-02-18T21:15:17.146Z,61.83
2019-02-18T21:17:45.682Z,59.87
2019-02-18T21:20:15.526Z,61.07
2019-02-18T21:22:44.070Z,62.87
2019-02-18T21:25:12.929Z,63.77
2019-02-18T21:27:41.492Z,60.53
2019-02-18T21:30:15.181Z,65.00
2019-02-18T21:32:43.720Z,62.43
2019-02-18T21:35:12.602Z,62.83
2019-02-18T21:37:41.581Z,66.37
2019-02-18T21:40:11.456Z,64.73
2019-02-18T21:42:40.163Z,61.47
2019-02-18T21:45:11.659Z,64.67
2019-02-18T21:47:40.207Z,68.50
2019-02-18T21:50:10.210Z,76.83
2019-02-18T21:52:39.168Z,71.13
2019-02-18T21:55:09.750Z,72.10
2019-02-18T21:57:38.346Z,68.23
2019-02-18T22:00:16.948Z,71.53
2019-02-18T22:02:45.469Z,69.47
2019-02-18T22:05:14.880Z,69.63
2019-02-18T22:07:43.693Z,69.03
2019-02-18T22:10:12.257Z,69.10
2019-02-18T22:12:40.842Z,71.67
2019-02-18T22:15:12.779Z,71.03
2019-02-18T22:17:41.324Z,73.17
2019-02-18T22:20:11.685Z,76.27
2019-02-18T22:22:40.152Z,73.57
2019-02-18T22:25:10.918Z,72.20
2019-02-18T22:27:39.518Z,73.33
2019-02-18T22:30:11.060Z,71.63
2019-02-18T22:32:39.596Z,74.57
2019-02-18T22:35:08.396Z,70.20
2019-02-18T22:37:37.334Z,68.67
2019-02-18T22:40:08.251Z,69.17
2019-02-18T22:42:36.743Z,69.73
2019-02-18T22:45:07.408Z,66.87
2019-02-18T22:47:35.903Z,69.07
2019-02-18T22:50:04.809Z,65.23
2019-02-18T22:52:33.752Z,67.77
2019-02-18T22:55:02.310Z,65.50
2019-02-18T22:57:30.858Z,68.13
2019-02-18T22:59:59.539Z,70.63
2019-02-18T23:02:28.086Z,69.53
2019-02-18T23:04:56.625Z,69.53
2019-02-18T23:07:25.200Z,69.07
2019-02-18T23:09:54.038Z,69.77
2019-02-18T23:12:22.578Z,68.63
2019-02-18T23:14:51.134Z,71.27
2019-02-18T23:17:19.665Z,69.80
2019-02-18T23:19:48.203Z,72.53
2019-02-18T23:22:16.781Z,69.23
2019-02-18T23:24:45.320Z,70.40
2019-02-18T23:27:13.847Z,70.80
2019-02-18T23:29:42.418Z,69.83
2019-02-18T23:32:10.958Z,71.47
2019-02-18T23:34:39.505Z,68.83
2019-02-18T23:37:08.039Z,66.53
2019-02-18T23:39:36.655Z,69.53
2019-02-18T23:42:05.173Z,68.17
2019-02-18T23:44:33.839Z,67.57
2019-02-18T23:47:02.290Z,65.50
2019-02-18T23:49:30.755Z,72.27
2019-02-18T23:51:59.289Z,68.37
2019-02-18T23:54:27.877Z,68.43
2019-02-18T23:56:56.406Z,68.27
2019-02-18T23:59:24.932Z,67.13
